createdAt,value
2022-11-30T00:02:28.220Z,2.46
2022-11-30T00:05:35.066Z,2.44
2022-11-30T00:08:41.976Z,2.51
2022-11-30T00:11:47.862Z,2.46
2022-11-30T00:14:53.044Z,2.42
2022-11-30T00:18:01.088Z,2.49
2022-11-30T00:21:11.895Z,2.50
2022-11-30T00:24:16.536Z,2.54
2022-11-30T00:27:24.090Z,2.53
2022-11-30T00:30:30.770Z,2.54
2022-11-30T00:33:39.198Z,2.55
2022-11-30T00:36:46.954Z,2.49
2022-11-30T00:39:55.894Z,2.54
2022-11-30T00:43:04.329Z,2.55
2022-11-30T00:46:11.929Z,2.34
2022-11-30T00:49:19.934Z,2.12
2022-11-30T00:52:26.765Z,2.18
2022-11-30T00:55:36.713Z,2.19
2022-11-30T00:58:44.717Z,2.37
2022-11-30T01:01:57.632Z,2.36
2022-11-30T01:05:07.026Z,2.32
2022-11-30T01:08:16.341Z,2.23
2022-11-30T01:11:25.144Z,2.28
2022-11-30T01:14:32.612Z,2.31
2022-11-30T01:17:38.510Z,2.32
2022-11-30T01:20:45.090Z,2.35
2022-11-30T01:23:52.628Z,2.35
2022-11-30T01:27:04.313Z,2.24
2022-11-30T01:30:10.221Z,2.22
2022-11-30T01:33:22.653Z,2.40
2022-11-30T01:36:30.540Z,2.27
2022-11-30T01:39:37.657Z,2.35
2022-11-30T01:42:47.483Z,2.56
2022-11-30T01:46:00.998Z,2.43
2022-11-30T01:49:12.692Z,2.34
2022-11-30T01:52:25.236Z,2.27
2022-11-30T01:55:36.849Z,2.23
2022-11-30T01:58:44.717Z,2.15
2022-11-30T02:01:54.884Z,2.02
2022-11-30T02:05:02.677Z,2.00
2022-11-30T02:08:10.399Z,2.03
2022-11-30T02:11:18.281Z,2.15
2022-11-30T02:14:25.063Z,2.06
2022-11-30T02:17:39.156Z,2.08
2022-11-30T02:20:47.218Z,2.11
2022-11-30T02:24:22.304Z,2.11
2022-11-30T02:27:37.681Z,2.19
2022-11-30T02:30:49.627Z,2.26
2022-11-30T02:33:58.344Z,2.24
2022-11-30T02:37:07.109Z,2.30
2022-11-30T02:40:17.869Z,2.36
2022-11-30T02:43:28.625Z,2.54
2022-11-30T02:46:59.434Z,2.42
2022-11-30T02:50:09.366Z,2.40
2022-11-30T02:53:17.135Z,2.53
2022-11-30T02:56:25.221Z,2.40
2022-11-30T02:59:32.344Z,2.52
2022-11-30T03:02:40.887Z,2.55
2022-11-30T03:05:48.435Z,2.50
2022-11-30T03:09:00.319Z,2.50
2022-11-30T03:12:06.943Z,2.58
2022-11-30T03:15:13.881Z,2.65
2022-11-30T03:18:22.433Z,2.62
2022-11-30T03:21:29.353Z,2.79
2022-11-30T03:24:35.168Z,2.72
2022-11-30T03:27:42.340Z,2.72
2022-11-30T03:30:54.267Z,2.61
2022-11-30T03:34:04.647Z,2.60
2022-11-30T03:37:12.955Z,2.63
2022-11-30T03:40:21.419Z,2.59
2022-11-30T03:43:29.111Z,2.83
2022-11-30T03:46:36.247Z,2.77
2022-11-30T03:49:42.882Z,2.77
2022-11-30T03:52:51.145Z,2.79
2022-11-30T03:56:05.069Z,2.74
2022-11-30T03:59:12.713Z,2.80
2022-11-30T04:02:20.463Z,2.84
2022-11-30T04:05:29.019Z,2.91
2022-11-30T04:09:03.031Z,3.03
2022-11-30T04:12:10.489Z,2.94
2022-11-30T04:15:16.341Z,2.96
2022-11-30T04:18:25.488Z,2.93
2022-11-30T04:21:30.508Z,2.92
2022-11-30T04:24:39.672Z,2.95
2022-11-30T04:27:49.278Z,2.81
2022-11-30T04:31:03.161Z,2.79
2022-11-30T04:34:11.090Z,2.87
2022-11-30T04:37:19.675Z,2.82
2022-11-30T04:40:26.680Z,2.85
2022-11-30T04:43:35.773Z,2.84
2022-11-30T04:46:41.711Z,2.84
2022-11-30T04:49:50.872Z,2.81
2022-11-30T04:52:58.199Z,2.88
2022-11-30T04:56:10.608Z,2.87
2022-11-30T04:59:18.268Z,3.01
2022-11-30T05:02:26.682Z,2.93
2022-11-30T05:05:34.687Z,3.06
2022-11-30T05:08:41.496Z,3.01
2022-11-30T05:11:50.500Z,3.00
2022-11-30T05:14:59.082Z,2.96
2022-11-30T05:18:04.702Z,2.90
2022-11-30T05:21:12.720Z,2.92
2022-11-30T05:24:18.309Z,2.92
2022-11-30T05:27:28.697Z,2.97
2022-11-30T05:30:36.076Z,2.94
2022-11-30T05:33:46.085Z,2.94
2022-11-30T05:36:52.758Z,3.01
2022-11-30T05:40:04.872Z,3.00
2022-11-30T05:43:10.831Z,3.02
2022-11-30T05:46:17.797Z,3.14
2022-11-30T05:49:23.358Z,3.03
2022-11-30T05:52:28.866Z,3.12
2022-11-30T05:55:35.127Z,3.04
2022-11-30T05:58:40.365Z,3.04
2022-11-30T06:01:44.921Z,3.10
2022-11-30T06:04:48.746Z,3.12
2022-11-30T06:07:53.064Z,3.14
2022-11-30T06:11:00.347Z,3.11
2022-11-30T06:14:02.909Z,3.16
2022-11-30T06:17:05.945Z,3.13
2022-11-30T06:20:09.564Z,3.12
2022-11-30T06:23:12.370Z,3.26
2022-11-30T06:26:14.957Z,3.23
2022-11-30T06:29:17.753Z,3.18
2022-11-30T06:32:20.195Z,3.21
2022-11-30T06:35:22.954Z,3.23
2022-11-30T06:38:26.190Z,3.33
2022-11-30T06:41:29.153Z,3.28
2022-11-30T06:44:31.549Z,3.29
2022-11-30T06:47:34.682Z,3.33
2022-11-30T06:50:37.521Z,3.41
2022-11-30T06:53:43.666Z,3.49
2022-11-30T06:56:48.476Z,3.53
2022-11-30T06:59:52.737Z,3.52
2022-11-30T07:02:55.715Z,3.54
2022-11-30T07:05:58.738Z,3.56
2022-11-30T07:09:01.494Z,3.67
2022-11-30T07:12:05.126Z,3.63
2022-11-30T07:15:08.424Z,3.79
2022-11-30T07:18:12.440Z,3.86
2022-11-30T07:21:15.883Z,3.90
2022-11-30T07:24:38.983Z,3.99
2022-11-30T07:27:44.101Z,3.99
2022-11-30T07:30:48.463Z,3.97
2022-11-30T07:33:51.950Z,3.99
2022-11-30T07:36:56.948Z,4.03
2022-11-30T07:40:00.312Z,3.99
2022-11-30T07:43:04.859Z,4.01
2022-11-30T07:46:08.109Z,4.03
2022-11-30T07:49:13.565Z,4.22
2022-11-30T07:52:18.395Z,4.40
2022-11-30T07:55:24.642Z,4.32
2022-11-30T07:58:31.026Z,4.56
2022-11-30T08:01:35.034Z,4.40
2022-11-30T08:04:38.679Z,4.32
2022-11-30T08:07:43.383Z,4.25
2022-11-30T08:10:48.235Z,4.28
2022-11-30T08:13:52.596Z,4.44
2022-11-30T08:16:55.738Z,4.47
2022-11-30T08:20:00.185Z,4.56
2022-11-30T08:23:05.112Z,4.60
2022-11-30T08:26:10.123Z,4.70
2022-11-30T08:29:16.191Z,4.80
2022-11-30T08:32:21.168Z,4.79
2022-11-30T08:35:25.732Z,4.71
2022-11-30T08:38:29.398Z,5.06
2022-11-30T08:41:36.114Z,5.26
2022-11-30T08:44:40.991Z,5.32
2022-11-30T08:47:44.586Z,5.34
2022-11-30T08:50:49.194Z,5.32
2022-11-30T08:53:53.609Z,5.24
2022-11-30T08:56:57.390Z,5.06
2022-11-30T09:00:01.620Z,5.14
2022-11-30T09:03:05.975Z,5.22
2022-11-30T09:06:11.117Z,5.42
2022-11-30T09:09:14.686Z,5.50
2022-11-30T09:12:18.571Z,5.32
2022-11-30T09:15:21.854Z,5.13
2022-11-30T09:18:25.621Z,5.29
2022-11-30T09:21:29.155Z,5.42
2022-11-30T09:24:33.363Z,5.15
2022-11-30T09:27:36.066Z,5.35
2022-11-30T09:30:40.793Z,5.53
2022-11-30T09:33:46.268Z,5.87
2022-11-30T09:36:50.259Z,5.32
2022-11-30T09:39:53.802Z,5.42
2022-11-30T09:43:03.033Z,5.66
2022-11-30T09:46:07.333Z,5.76
2022-11-30T09:49:23.986Z,5.88
2022-11-30T09:52:33.383Z,6.07
2022-11-30T09:55:39.939Z,6.11
2022-11-30T09:58:48.049Z,6.30
2022-11-30T10:01:56.926Z,5.84
2022-11-30T10:05:01.278Z,5.75
2022-11-30T10:08:13.818Z,5.99
2022-11-30T10:11:38.172Z,5.98
2022-11-30T10:15:08.344Z,6.35
2022-11-30T10:18:16.095Z,6.20
2022-11-30T10:21:25.310Z,6.45
2022-11-30T10:24:41.348Z,6.64
2022-11-30T10:27:54.408Z,6.73
2022-11-30T10:31:01.009Z,6.43
2022-11-30T10:34:21.390Z,6.29
2022-11-30T10:37:33.619Z,6.45
2022-11-30T10:40:39.969Z,6.41
2022-11-30T10:43:54.485Z,6.47
2022-11-30T10:47:00.734Z,6.66
2022-11-30T10:50:06.263Z,6.55
2022-11-30T10:53:10.535Z,6.58
2022-11-30T10:56:14.739Z,6.77
2022-11-30T10:59:36.634Z,6.73
2022-11-30T11:02:40.081Z,6.69
2022-11-30T11:05:43.038Z,7.02
2022-11-30T11:08:47.255Z,6.80
2022-11-30T11:12:17.308Z,6.92
2022-11-30T11:15:23.438Z,6.80
2022-11-30T11:18:27.948Z,7.02
2022-11-30T11:21:32.878Z,6.80
2022-11-30T11:24:36.530Z,6.94
2022-11-30T11:27:44.877Z,7.12
2022-11-30T11:30:48.911Z,6.99
2022-11-30T11:33:54.385Z,7.01
2022-11-30T11:37:08.256Z,6.73
2022-11-30T11:40:16.335Z,6.73
2022-11-30T11:43:19.081Z,7.18
2022-11-30T11:46:22.308Z,7.13
2022-11-30T11:49:38.129Z,7.09
2022-11-30T11:52:41.374Z,7.33
2022-11-30T11:55:45.051Z,7.34
2022-11-30T11:58:51.764Z,7.24
2022-11-30T12:01:58.483Z,7.66
2022-11-30T12:05:07.902Z,7.98
2022-11-30T12:08:26.230Z,8.21
2022-11-30T12:11:38.939Z,8.26
2022-11-30T12:14:41.391Z,8.20
2022-11-30T12:17:50.382Z,8.31
2022-11-30T12:20:58.591Z,7.65
2022-11-30T12:24:20.282Z,7.62
2022-11-30T12:27:42.592Z,7.83
2022-11-30T12:30:54.438Z,7.93
2022-11-30T12:34:10.696Z,7.66
2022-11-30T12:37:20.107Z,7.89
2022-11-30T12:40:52.982Z,7.52
2022-11-30T12:43:57.188Z,7.59
2022-11-30T12:47:00.369Z,7.47
2022-11-30T12:50:22.979Z,7.64
2022-11-30T12:53:33.013Z,7.73
2022-11-30T12:56:48.124Z,8.10
2022-11-30T13:00:07.568Z,7.72
2022-11-30T13:03:24.760Z,7.67
2022-11-30T13:06:33.225Z,7.53
2022-11-30T13:09:49.679Z,7.43
2022-11-30T13:12:53.748Z,7.66
2022-11-30T13:15:59.857Z,7.71
2022-11-30T13:19:29.912Z,7.40
2022-11-30T13:22:42.790Z,7.31
2022-11-30T13:26:08.651Z,7.27
2022-11-30T13:29:45.230Z,7.37
2022-11-30T13:32:57.883Z,7.33
2022-11-30T13:36:05.775Z,7.20
2022-11-30T13:39:15.187Z,7.27
2022-11-30T13:42:38.937Z,7.39
2022-11-30T13:45:42.595Z,7.37
2022-11-30T13:48:46.240Z,7.37
2022-11-30T13:52:13.688Z,7.27
2022-11-30T13:55:33.647Z,7.20
2022-11-30T13:58:57.978Z,7.14
2022-11-30T14:02:20.014Z,7.10
2022-11-30T14:05:25.602Z,7.01
2022-11-30T14:08:31.586Z,6.97
2022-11-30T14:11:40.566Z,6.92
2022-11-30T14:14:46.350Z,6.92
2022-11-30T14:17:57.479Z,6.82
2022-11-30T14:21:04.000Z,6.78
2022-11-30T14:24:16.858Z,6.73
2022-11-30T14:27:28.308Z,6.73
2022-11-30T14:30:33.661Z,6.65
2022-11-30T14:33:42.200Z,6.63
2022-11-30T14:36:51.056Z,6.60
2022-11-30T14:39:58.596Z,6.55
2022-11-30T14:43:03.212Z,6.54
2022-11-30T14:46:10.286Z,6.52
2022-11-30T14:49:17.958Z,6.51
2022-11-30T14:52:26.147Z,6.51
2022-11-30T14:55:41.052Z,6.43
2022-11-30T14:58:44.488Z,6.42
2022-11-30T15:01:48.709Z,6.45
2022-11-30T15:04:53.690Z,6.41
2022-11-30T15:07:57.676Z,6.34
2022-11-30T15:11:20.481Z,6.31
2022-11-30T15:14:25.172Z,6.34
2022-11-30T15:17:28.960Z,6.26
2022-11-30T15:20:40.102Z,6.25
2022-11-30T15:23:50.679Z,6.25
2022-11-30T15:27:08.766Z,6.23
2022-11-30T15:30:15.577Z,6.19
2022-11-30T15:33:21.298Z,6.10
2022-11-30T15:36:33.381Z,6.05
2022-11-30T15:39:39.378Z,6.00
2022-11-30T15:42:47.596Z,5.96
2022-11-30T15:45:59.612Z,5.94
2022-11-30T15:49:06.619Z,5.97
2022-11-30T15:52:15.209Z,6.14
2022-11-30T15:55:38.540Z,5.99
2022-11-30T15:58:46.709Z,6.02
2022-11-30T16:02:05.109Z,5.92
2022-11-30T16:05:16.398Z,5.85
2022-11-30T16:08:21.419Z,5.76
2022-11-30T16:11:26.996Z,5.74
2022-11-30T16:14:34.064Z,5.69
2022-11-30T16:17:39.372Z,5.62
2022-11-30T16:20:45.293Z,5.58
2022-11-30T16:23:49.969Z,5.57
2022-11-30T16:26:53.775Z,5.55
2022-11-30T16:29:58.404Z,5.58
2022-11-30T16:33:02.877Z,5.51
2022-11-30T16:36:09.429Z,5.47
2022-11-30T16:39:15.260Z,5.49
2022-11-30T16:42:19.790Z,5.46
2022-11-30T16:45:26.428Z,5.44
2022-11-30T16:48:33.067Z,5.38
2022-11-30T16:51:39.251Z,5.43
2022-11-30T16:54:46.897Z,5.44
2022-11-30T16:57:54.883Z,5.41
2022-11-30T17:01:02.176Z,5.37
2022-11-30T17:04:17.983Z,5.38
2022-11-30T17:07:26.217Z,5.34
2022-11-30T17:10:34.303Z,5.28
2022-11-30T17:13:39.527Z,5.23
2022-11-30T17:16:46.690Z,5.21
2022-11-30T17:19:55.423Z,5.15
2022-11-30T17:23:05.090Z,5.14
2022-11-30T17:26:12.067Z,5.16
2022-11-30T17:29:19.026Z,5.10
2022-11-30T17:32:24.344Z,5.04
2022-11-30T17:35:31.819Z,4.99
2022-11-30T17:38:36.830Z,5.04
2022-11-30T17:41:43.197Z,5.02
2022-11-30T17:44:50.851Z,5.01
2022-11-30T17:47:55.670Z,5.14
2022-11-30T17:51:01.694Z,5.12
2022-11-30T17:54:06.685Z,5.12
2022-11-30T17:57:11.734Z,5.13
2022-11-30T18:00:17.146Z,5.08
2022-11-30T18:03:26.351Z,5.06
2022-11-30T18:06:32.106Z,5.10
2022-11-30T18:09:43.104Z,5.10
2022-11-30T18:12:52.225Z,5.09
2022-11-30T18:16:08.789Z,5.01
2022-11-30T18:19:16.351Z,5.02
2022-11-30T18:22:23.222Z,5.06
2022-11-30T18:25:31.364Z,5.04
2022-11-30T18:28:38.648Z,5.03
2022-11-30T18:31:46.582Z,5.03
2022-11-30T18:34:53.842Z,5.07
2022-11-30T18:37:59.441Z,4.97
2022-11-30T18:41:06.455Z,4.91
2022-11-30T18:44:14.298Z,4.82
2022-11-30T18:47:21.684Z,4.82
2022-11-30T18:50:27.851Z,4.84
2022-11-30T18:53:35.372Z,4.83
2022-11-30T18:56:41.786Z,4.80
2022-11-30T18:59:48.705Z,4.88
2022-11-30T19:02:56.603Z,4.80
2022-11-30T19:06:05.101Z,4.71
2022-11-30T19:09:15.052Z,4.81
2022-11-30T19:12:20.061Z,4.80
2022-11-30T19:15:24.574Z,4.77
2022-11-30T19:18:28.070Z,4.75
2022-11-30T19:21:33.518Z,4.80
2022-11-30T19:24:38.699Z,4.82
2022-11-30T19:27:44.687Z,4.80
2022-11-30T19:30:50.177Z,4.81
2022-11-30T19:33:56.355Z,4.97
2022-11-30T19:37:04.978Z,4.90
2022-11-30T19:40:09.909Z,4.79
2022-11-30T19:43:17.740Z,4.82
2022-11-30T19:46:23.678Z,4.79
2022-11-30T19:49:29.773Z,4.79
2022-11-30T19:52:35.852Z,4.77
2022-11-30T19:55:42.503Z,4.65
2022-11-30T19:58:48.095Z,4.56
2022-11-30T20:01:55.830Z,4.55
2022-11-30T20:05:01.851Z,4.55
2022-11-30T20:08:06.989Z,4.54
2022-11-30T20:11:14.809Z,4.55
2022-11-30T20:14:24.813Z,4.53
2022-11-30T20:17:29.828Z,4.46
2022-11-30T20:20:38.773Z,4.44
2022-11-30T20:23:49.382Z,4.42
2022-11-30T20:26:55.767Z,4.40
2022-11-30T20:30:02.999Z,4.49
2022-11-30T20:33:09.631Z,4.40
2022-11-30T20:36:16.476Z,4.47
2022-11-30T20:39:23.496Z,4.51
2022-11-30T20:42:27.489Z,4.45
2022-11-30T20:45:34.626Z,4.45
2022-11-30T20:48:41.749Z,4.38
2022-11-30T20:51:47.723Z,4.29
2022-11-30T20:54:55.457Z,4.32
2022-11-30T20:58:02.485Z,4.41
2022-11-30T21:01:14.284Z,4.34
2022-11-30T21:04:20.823Z,4.23
2022-11-30T21:07:28.024Z,4.24
2022-11-30T21:10:38.358Z,4.27
2022-11-30T21:13:49.337Z,4.06
2022-11-30T21:16:56.357Z,4.00
2022-11-30T21:20:04.963Z,4.06
2022-11-30T21:23:08.702Z,4.00
2022-11-30T21:26:16.185Z,4.00
2022-11-30T21:29:21.492Z,4.01
2022-11-30T21:32:24.677Z,3.99
2022-11-30T21:35:29.201Z,3.98
2022-11-30T21:38:36.355Z,4.12
2022-11-30T21:41:41.392Z,4.00
2022-11-30T21:44:47.643Z,4.00
2022-11-30T21:47:52.367Z,3.96
2022-11-30T21:51:00.694Z,3.96
2022-11-30T21:54:07.194Z,3.93
2022-11-30T21:57:12.470Z,3.89
2022-11-30T22:00:18.925Z,3.92
2022-11-30T22:03:25.753Z,3.91
2022-11-30T22:06:32.696Z,3.90
2022-11-30T22:09:38.057Z,3.85
2022-11-30T22:12:45.719Z,3.86
2022-11-30T22:15:58.978Z,3.84
2022-11-30T22:19:07.663Z,3.84
2022-11-30T22:22:14.796Z,3.83
2022-11-30T22:25:24.060Z,3.83
2022-11-30T22:28:31.264Z,3.85
2022-11-30T22:31:37.318Z,3.85
2022-11-30T22:34:43.091Z,3.85
2022-11-30T22:37:49.015Z,3.83
2022-11-30T22:40:58.351Z,3.78
2022-11-30T22:44:05.151Z,3.82
2022-11-30T22:47:09.105Z,3.80
2022-11-30T22:50:14.579Z,3.79
2022-11-30T22:53:18.569Z,3.88
2022-11-30T22:56:26.567Z,3.81
2022-11-30T22:59:31.670Z,3.84
2022-11-30T23:02:35.879Z,3.82
2022-11-30T23:05:44.726Z,3.79
2022-11-30T23:08:52.762Z,3.89
2022-11-30T23:11:58.150Z,3.89
2022-11-30T23:15:03.399Z,3.77
2022-11-30T23:18:07.552Z,3.75
2022-11-30T23:21:14.390Z,3.75
2022-11-30T23:24:21.326Z,3.76
2022-11-30T23:27:25.629Z,3.73
2022-11-30T23:30:31.863Z,3.76
2022-11-30T23:33:37.466Z,3.78
2022-11-30T23:36:43.312Z,3.81
2022-11-30T23:39:48.832Z,3.78
2022-11-30T23:42:54.685Z,3.77
2022-11-30T23:45:57.308Z,3.77
2022-11-30T23:49:04.077Z,3.86
2022-11-30T23:52:09.941Z,3.89
2022-11-30T23:55:15.305Z,3.83
2022-11-30T23:58:23.199Z,3.86
